createdAt,value
2023-02-06T00:00:25.902Z,0.40
2023-02-06T00:02:52.645Z,0.40
2023-02-06T00:05:21.563Z,0.30
2023-02-06T00:07:48.192Z,0.40
2023-02-06T00:10:15.376Z,0.30
2023-02-06T00:12:42.135Z,0.30
2023-02-06T00:15:10.585Z,0.20
2023-02-06T00:17:37.988Z,0.10
2023-02-06T00:20:06.500Z,0.10
2023-02-06T00:22:33.649Z,0.20
2023-02-06T00:25:01.103Z,0.20
2023-02-06T00:27:30.615Z,0.20
2023-02-06T00:29:57.442Z,0.20
2023-02-06T00:32:25.695Z,0.10
2023-02-06T00:34:52.561Z,0.10
2023-02-06T00:37:19.348Z,0.10
2023-02-06T00:39:46.137Z,0.10
2023-02-06T00:42:14.011Z,0.00
2023-02-06T00:44:40.839Z,0.10
2023-02-06T00:47:07.579Z,0.10
2023-02-06T00:49:35.645Z,0.20
2023-02-06T00:52:02.387Z,0.20
2023-02-06T00:54:29.242Z,0.10
2023-02-06T00:56:56.006Z,0.10
2023-02-06T00:59:22.793Z,0.10
2023-02-06T01:01:49.664Z,0.00
2023-02-06T01:04:16.434Z,0.10
2023-02-06T01:06:44.522Z,0.10
2023-02-06T01:09:11.271Z,0.10
2023-02-06T01:11:38.015Z,0.00
2023-02-06T01:14:04.838Z,0.00
2023-02-06T01:16:31.570Z,-0.10
2023-02-06T01:18:58.292Z,0.00
2023-02-06T01:21:25.613Z,0.10
2023-02-06T01:23:54.714Z,0.10
2023-02-06T01:26:24.165Z,0.20
2023-02-06T01:28:50.910Z,0.20
2023-02-06T01:31:20.010Z,0.30
2023-02-06T01:33:50.752Z,0.30
2023-02-06T01:36:18.645Z,0.40
2023-02-06T01:38:45.875Z,0.40
2023-02-06T01:41:14.925Z,0.40
2023-02-06T01:43:42.438Z,0.40
2023-02-06T01:46:09.424Z,0.50
2023-02-06T01:48:41.030Z,0.50
2023-02-06T01:51:11.079Z,0.50
2023-02-06T01:53:39.460Z,0.50
2023-02-06T01:56:07.687Z,0.50
2023-02-06T01:58:38.511Z,0.50
2023-02-06T02:01:07.226Z,0.50
2023-02-06T02:03:39.520Z,0.60
2023-02-06T02:06:08.461Z,0.60
2023-02-06T02:08:38.109Z,0.60
2023-02-06T02:11:06.731Z,0.60
2023-02-06T02:13:35.191Z,0.60
2023-02-06T02:16:11.223Z,0.70
2023-02-06T02:18:59.580Z,0.70
2023-02-06T02:21:59.915Z,0.70
2023-02-06T02:24:44.180Z,0.70
2023-02-06T02:27:27.572Z,0.70
2023-02-06T02:30:31.448Z,0.70
2023-02-06T02:33:26.496Z,0.80
2023-02-06T02:36:02.577Z,0.80
2023-02-06T02:38:40.158Z,0.90
2023-02-06T02:41:15.920Z,0.90
2023-02-06T02:43:45.024Z,0.90
2023-02-06T02:46:17.740Z,0.90
2023-02-06T02:48:47.253Z,0.90
2023-02-06T02:51:16.318Z,0.90
2023-02-06T02:53:42.932Z,0.90
2023-02-06T02:56:16.003Z,0.90
2023-02-06T02:58:44.459Z,0.90
2023-02-06T03:01:14.118Z,0.90
2023-02-06T03:03:43.030Z,0.90
2023-02-06T03:06:40.460Z,0.90
2023-02-06T03:09:16.266Z,0.90
2023-02-06T03:11:50.536Z,0.90
2023-02-06T03:14:25.698Z,0.90
2023-02-06T03:16:58.651Z,0.90
2023-02-06T03:19:31.133Z,0.90
2023-02-06T03:22:00.850Z,0.80
2023-02-06T03:24:32.276Z,0.80
2023-02-06T03:27:01.620Z,0.80
2023-02-06T03:29:31.360Z,0.70
2023-02-06T03:32:05.058Z,0.70
2023-02-06T03:34:39.297Z,0.70
2023-02-06T03:37:07.570Z,0.60
2023-02-06T03:39:34.778Z,0.50
2023-02-06T03:42:04.231Z,0.60
2023-02-06T03:44:34.225Z,0.50
2023-02-06T03:47:03.461Z,0.40
2023-02-06T03:49:32.603Z,0.30
2023-02-06T03:52:03.627Z,0.20
2023-02-06T03:54:33.581Z,0.00
2023-02-06T03:57:02.889Z,-0.10
2023-02-06T03:59:30.353Z,-0.10
2023-02-06T04:01:59.280Z,-0.10
2023-02-06T04:04:28.761Z,-0.10
2023-02-06T04:06:55.723Z,0.00
2023-02-06T04:09:22.453Z,-0.20
2023-02-06T04:11:50.556Z,-0.40
2023-02-06T04:14:17.531Z,-0.40
2023-02-06T04:16:44.305Z,-0.20
2023-02-06T04:19:11.092Z,-0.10
2023-02-06T04:21:38.065Z,-0.10
2023-02-06T04:24:05.261Z,-0.10
2023-02-06T04:26:31.985Z,0.10
2023-02-06T04:29:00.098Z,0.00
2023-02-06T04:31:26.908Z,0.10
2023-02-06T04:33:53.712Z,0.20
2023-02-06T04:36:20.489Z,0.30
2023-02-06T04:38:47.257Z,0.30
2023-02-06T04:41:14.056Z,0.30
2023-02-06T04:43:40.827Z,0.20
2023-02-06T04:46:08.950Z,0.20
2023-02-06T04:48:37.278Z,0.20
2023-02-06T04:51:04.587Z,0.10
2023-02-06T04:53:31.396Z,0.00
2023-02-06T04:56:02.209Z,0.10
2023-02-06T04:58:28.961Z,0.10
2023-02-06T05:00:55.809Z,0.00
2023-02-06T05:03:23.977Z,0.10
2023-02-06T05:05:50.857Z,0.10
2023-02-06T05:08:17.734Z,0.10
2023-02-06T05:10:44.686Z,0.10
2023-02-06T05:13:11.459Z,0.10
2023-02-06T05:15:39.083Z,0.10
2023-02-06T05:18:06.593Z,0.10
2023-02-06T05:20:34.715Z,0.10
2023-02-06T05:23:01.524Z,0.00
2023-02-06T05:25:28.544Z,0.10
2023-02-06T05:27:56.001Z,0.00
2023-02-06T05:30:23.284Z,0.00
2023-02-06T05:32:50.174Z,0.10
2023-02-06T05:35:18.703Z,0.10
2023-02-06T05:37:50.346Z,0.10
2023-02-06T05:40:17.384Z,0.00
2023-02-06T05:42:44.236Z,-0.10
2023-02-06T05:45:10.971Z,-0.30
2023-02-06T05:47:37.770Z,-0.20
2023-02-06T05:50:05.238Z,-0.20
2023-02-06T05:52:32.007Z,-0.10
2023-02-06T05:55:04.353Z,-0.10
2023-02-06T05:57:31.067Z,-0.20
2023-02-06T05:59:57.806Z,-0.20
2023-02-06T06:02:27.712Z,-0.20
2023-02-06T06:04:54.498Z,-0.10
2023-02-06T06:07:21.436Z,-0.20
2023-02-06T06:09:48.221Z,-0.20
2023-02-06T06:12:19.262Z,-0.20
2023-02-06T06:14:46.090Z,-0.10
2023-02-06T06:17:12.866Z,-0.20
2023-02-06T06:19:39.635Z,-0.10
2023-02-06T06:22:06.428Z,-0.10
2023-02-06T06:24:33.244Z,-0.10
2023-02-06T06:27:00.086Z,-0.10
2023-02-06T06:29:28.353Z,0.00
2023-02-06T06:31:55.529Z,0.10
2023-02-06T06:34:22.571Z,0.10
2023-02-06T06:36:49.329Z,0.10
2023-02-06T06:39:16.351Z,0.00
2023-02-06T06:41:43.102Z,0.10
2023-02-06T06:44:09.842Z,0.10
2023-02-06T06:46:37.990Z,0.10
2023-02-06T06:49:04.992Z,0.10
2023-02-06T06:51:31.812Z,0.10
2023-02-06T06:53:58.583Z,0.20
2023-02-06T06:56:25.514Z,0.10
2023-02-06T06:58:52.675Z,0.10
2023-02-06T07:01:20.080Z,0.10
2023-02-06T07:03:48.258Z,0.20
2023-02-06T07:06:15.507Z,0.30
2023-02-06T07:08:42.565Z,0.30
2023-02-06T07:11:09.511Z,0.30
2023-02-06T07:13:36.554Z,0.30
2023-02-06T07:16:03.789Z,0.40
2023-02-06T07:18:30.529Z,0.30
2023-02-06T07:20:58.634Z,0.30
2023-02-06T07:23:25.756Z,0.40
2023-02-06T07:25:52.890Z,0.40
2023-02-06T07:28:19.708Z,0.40
2023-02-06T07:30:46.486Z,0.40
2023-02-06T07:33:13.235Z,0.50
2023-02-06T07:35:42.197Z,0.50
2023-02-06T07:38:10.166Z,0.50
2023-02-06T07:40:45.032Z,0.50
2023-02-06T07:43:12.125Z,0.60
2023-02-06T07:45:39.313Z,0.60
2023-02-06T07:48:09.503Z,0.60
2023-02-06T07:50:36.405Z,0.60
2023-02-06T07:53:03.167Z,0.60
2023-02-06T07:55:31.305Z,0.70
2023-02-06T07:57:58.114Z,0.70
2023-02-06T08:00:24.988Z,0.80
2023-02-06T08:02:51.792Z,0.80
2023-02-06T08:05:18.820Z,0.80
2023-02-06T08:07:45.661Z,0.90
2023-02-06T08:10:14.576Z,0.90
2023-02-06T08:12:42.989Z,1.00
2023-02-06T08:15:10.371Z,1.00
2023-02-06T08:17:37.186Z,1.10
2023-02-06T08:20:04.403Z,1.10
2023-02-06T08:22:31.222Z,1.10
2023-02-06T08:24:57.973Z,1.20
2023-02-06T08:27:24.751Z,1.20
2023-02-06T08:29:53.038Z,1.20
2023-02-06T08:32:19.784Z,1.30
2023-02-06T08:34:46.546Z,1.40
2023-02-06T08:37:13.463Z,1.40
2023-02-06T08:39:40.313Z,1.50
2023-02-06T08:42:09.955Z,1.60
2023-02-06T08:44:36.795Z,1.70
2023-02-06T08:47:10.424Z,1.80
2023-02-06T08:49:37.707Z,1.90
2023-02-06T08:52:04.790Z,1.90
2023-02-06T08:54:33.849Z,1.90
2023-02-06T08:57:03.947Z,1.90
2023-02-06T08:59:31.001Z,2.00
2023-02-06T09:01:59.232Z,2.10
2023-02-06T09:04:32.835Z,2.20
2023-02-06T09:06:59.588Z,2.40
2023-02-06T09:09:26.536Z,2.40
2023-02-06T09:11:53.309Z,2.50
2023-02-06T09:14:20.040Z,2.50
2023-02-06T09:16:46.850Z,2.50
2023-02-06T09:19:13.983Z,2.60
2023-02-06T09:21:42.159Z,2.70
2023-02-06T09:24:09.861Z,2.80
2023-02-06T09:26:53.375Z,2.70
2023-02-06T09:29:26.374Z,2.70
2023-02-06T09:31:53.130Z,2.90
2023-02-06T09:34:19.964Z,2.90
2023-02-06T09:36:48.117Z,2.90
2023-02-06T09:39:15.098Z,3.00
2023-02-06T09:41:46.859Z,3.20
2023-02-06T09:44:18.612Z,3.30
2023-02-06T09:46:48.773Z,3.30
2023-02-06T09:49:18.859Z,3.50
2023-02-06T09:52:04.490Z,3.60
2023-02-06T09:54:42.728Z,3.80
2023-02-06T09:57:16.814Z,4.00
2023-02-06T09:59:47.593Z,3.70
2023-02-06T10:02:32.018Z,3.70
2023-02-06T10:05:05.721Z,3.70
2023-02-06T10:07:59.018Z,3.80
2023-02-06T10:10:35.687Z,4.00
2023-02-06T10:13:09.549Z,4.00
2023-02-06T10:15:42.534Z,3.90
2023-02-06T10:18:13.942Z,4.00
2023-02-06T10:20:48.174Z,4.10
2023-02-06T10:23:26.852Z,4.10
2023-02-06T10:26:03.732Z,4.30
2023-02-06T10:28:33.735Z,4.50
2023-02-06T10:31:16.033Z,4.40
2023-02-06T10:33:50.108Z,4.50
2023-02-06T10:36:45.976Z,4.90
2023-02-06T10:39:35.285Z,4.80
2023-02-06T10:42:12.045Z,4.70
2023-02-06T10:44:52.947Z,5.20
2023-02-06T10:47:34.540Z,5.60
2023-02-06T10:50:15.344Z,5.50
2023-02-06T10:52:43.066Z,5.80
2023-02-06T10:55:40.397Z,5.90
2023-02-06T10:58:39.280Z,5.70
2023-02-06T11:04:03.956Z,5.40
2023-02-06T11:06:32.911Z,5.30
2023-02-06T11:09:00.206Z,5.50
2023-02-06T11:11:30.502Z,5.30
2023-02-06T11:14:04.937Z,5.40
2023-02-06T11:16:32.920Z,5.30
2023-02-06T11:19:10.817Z,5.50
2023-02-06T11:21:49.781Z,5.70
2023-02-06T11:24:17.229Z,5.80
2023-02-06T11:26:47.757Z,5.70
2023-02-06T11:29:20.362Z,5.80
2023-02-06T11:31:51.001Z,5.40
2023-02-06T11:34:26.671Z,5.50
2023-02-06T11:36:55.363Z,5.90
2023-02-06T11:39:31.161Z,5.90
2023-02-06T11:42:05.956Z,5.90
2023-02-06T11:44:41.593Z,6.00
2023-02-06T11:47:33.050Z,5.70
2023-02-06T11:50:22.057Z,6.20
2023-02-06T11:52:57.952Z,6.00
2023-02-06T11:55:36.009Z,6.10
2023-02-06T11:58:06.929Z,6.10
2023-02-06T12:00:36.198Z,6.10
2023-02-06T12:03:04.384Z,6.20
2023-02-06T12:05:35.007Z,6.30
2023-02-06T12:08:05.507Z,6.60
2023-02-06T12:10:35.792Z,6.30
2023-02-06T12:13:08.638Z,6.80
2023-02-06T12:15:47.060Z,6.80
2023-02-06T12:18:17.333Z,6.50
2023-02-06T12:20:49.814Z,6.10
2023-02-06T12:23:22.104Z,5.80
2023-02-06T12:25:51.105Z,6.10
2023-02-06T12:28:21.014Z,6.20
2023-02-06T12:30:54.238Z,6.20
2023-02-06T12:33:27.156Z,6.30
2023-02-06T12:35:56.887Z,5.90
2023-02-06T12:38:31.957Z,6.20
2023-02-06T12:41:10.351Z,6.30
2023-02-06T12:43:39.337Z,6.40
2023-02-06T12:46:10.421Z,6.00
2023-02-06T12:48:41.404Z,6.00
2023-02-06T12:51:13.858Z,6.00
2023-02-06T12:53:45.822Z,6.20
2023-02-06T12:56:22.248Z,6.30
2023-02-06T12:58:56.269Z,6.70
2023-02-06T13:01:40.333Z,6.50
2023-02-06T13:04:12.858Z,6.30
2023-02-06T13:06:50.773Z,6.20
2023-02-06T13:09:21.378Z,6.50
2023-02-06T13:11:48.414Z,6.80
2023-02-06T13:14:21.372Z,6.70
2023-02-06T13:16:55.541Z,6.50
2023-02-06T13:19:29.006Z,6.30
2023-02-06T13:22:43.782Z,6.20
2023-02-06T13:25:53.180Z,6.30
2023-02-06T13:28:40.354Z,6.60
2023-02-06T13:31:21.809Z,6.80
2023-02-06T13:33:52.319Z,7.20
2023-02-06T13:36:26.261Z,7.40
2023-02-06T13:38:55.487Z,8.00
2023-02-06T13:41:29.804Z,7.40
2023-02-06T13:44:02.845Z,7.00
2023-02-06T13:47:05.180Z,6.60
2023-02-06T13:49:56.866Z,6.20
2023-02-06T13:52:32.976Z,5.80
2023-02-06T13:55:12.386Z,5.60
2023-02-06T13:57:52.086Z,5.50
2023-02-06T14:00:21.799Z,5.40
2023-02-06T14:02:51.560Z,5.40
2023-02-06T14:05:22.566Z,5.60
2023-02-06T14:08:04.682Z,6.00
2023-02-06T14:10:50.560Z,6.20
2023-02-06T14:13:32.686Z,6.70
2023-02-06T14:16:15.669Z,6.70
2023-02-06T14:18:49.425Z,6.70
2023-02-06T14:21:31.144Z,6.40
2023-02-06T14:24:15.279Z,6.20
2023-02-06T14:26:51.364Z,6.20
2023-02-06T14:29:29.485Z,6.10
2023-02-06T14:32:10.158Z,6.20
2023-02-06T14:34:52.150Z,6.10
2023-02-06T14:37:45.706Z,6.10
2023-02-06T14:40:18.780Z,6.00
2023-02-06T14:42:47.156Z,6.00
2023-02-06T14:45:25.230Z,6.00
2023-02-06T14:47:53.751Z,5.90
2023-02-06T14:50:22.901Z,5.90
2023-02-06T14:52:53.455Z,6.00
2023-02-06T14:55:32.419Z,6.00
2023-02-06T14:57:59.432Z,6.10
2023-02-06T15:00:27.048Z,6.10
2023-02-06T15:03:06.356Z,6.00
2023-02-06T15:05:33.731Z,5.90
2023-02-06T15:08:03.880Z,6.00
2023-02-06T15:10:32.584Z,6.00
2023-02-06T15:12:59.604Z,6.00
2023-02-06T15:15:28.374Z,5.90
2023-02-06T15:17:59.827Z,5.80
2023-02-06T15:20:30.407Z,5.90
2023-02-06T15:23:16.549Z,5.80
2023-02-06T15:25:57.067Z,5.80
2023-02-06T15:28:28.259Z,5.80
2023-02-06T15:30:56.828Z,5.80
2023-02-06T15:33:26.730Z,5.80
2023-02-06T15:35:56.164Z,5.80
2023-02-06T15:38:27.084Z,5.80
2023-02-06T15:41:02.121Z,5.80
2023-02-06T15:43:29.453Z,5.80
2023-02-06T15:45:58.374Z,5.60
2023-02-06T15:48:26.690Z,5.50
2023-02-06T15:51:04.299Z,5.40
2023-02-06T15:53:34.448Z,5.30
2023-02-06T15:56:03.964Z,5.20
2023-02-06T15:58:31.951Z,5.20
2023-02-06T16:00:59.635Z,5.10
2023-02-06T16:03:29.503Z,5.10
2023-02-06T16:05:57.169Z,5.10
2023-02-06T16:08:30.570Z,5.10
2023-02-06T16:11:05.215Z,5.00
2023-02-06T16:13:32.598Z,5.00
2023-02-06T16:16:18.979Z,5.00
2023-02-06T16:18:46.011Z,5.00
2023-02-06T16:21:29.021Z,4.90
2023-02-06T16:24:15.125Z,4.80
2023-02-06T16:26:45.927Z,4.70
2023-02-06T16:29:26.793Z,4.60
2023-02-06T16:32:01.354Z,4.40
2023-02-06T16:34:42.108Z,4.30
2023-02-06T16:37:12.854Z,4.20
2023-02-06T16:39:42.544Z,3.90
2023-02-06T16:42:15.064Z,3.80
2023-02-06T16:44:46.140Z,3.70
2023-02-06T16:47:19.335Z,3.60
2023-02-06T16:49:46.546Z,3.40
2023-02-06T16:52:19.294Z,3.30
2023-02-06T16:54:46.787Z,3.20
2023-02-06T16:57:22.281Z,3.00
2023-02-06T16:59:49.413Z,3.10
2023-02-06T17:02:16.446Z,2.90
2023-02-06T17:04:43.326Z,2.80
2023-02-06T17:07:13.818Z,2.50
2023-02-06T17:09:41.474Z,2.40
2023-02-06T17:12:11.943Z,2.40
2023-02-06T17:14:40.231Z,2.20
2023-02-06T17:17:07.044Z,2.10
2023-02-06T17:19:33.808Z,2.00
2023-02-06T17:22:00.586Z,1.90
2023-02-06T17:24:27.334Z,1.70
2023-02-06T17:26:54.247Z,1.70
2023-02-06T17:29:21.004Z,1.70
2023-02-06T17:31:49.131Z,1.70
2023-02-06T17:34:16.140Z,1.60
2023-02-06T17:36:42.895Z,1.60
2023-02-06T17:39:11.967Z,1.50
2023-02-06T17:41:39.156Z,1.30
2023-02-06T17:44:07.999Z,1.30
2023-02-06T17:46:38.018Z,1.40
2023-02-06T17:49:06.484Z,1.30
2023-02-06T17:51:33.371Z,1.40
2023-02-06T17:54:00.224Z,1.40
2023-02-06T17:56:27.027Z,1.20
2023-02-06T17:58:53.792Z,1.00
2023-02-06T18:01:22.939Z,0.70
2023-02-06T18:03:50.701Z,0.80
2023-02-06T18:06:19.840Z,0.80
2023-02-06T18:08:46.672Z,0.80
2023-02-06T18:11:16.321Z,0.90
2023-02-06T18:13:43.420Z,1.00
2023-02-06T18:16:14.495Z,0.90
2023-02-06T18:18:41.315Z,1.00
2023-02-06T18:21:12.745Z,0.80
2023-02-06T18:23:41.001Z,0.80
2023-02-06T18:26:10.040Z,0.80
2023-02-06T18:28:37.412Z,0.80
2023-02-06T18:31:04.558Z,0.80
2023-02-06T18:33:33.721Z,0.60
2023-02-06T18:36:05.353Z,0.50
2023-02-06T18:38:32.337Z,0.40
2023-02-06T18:41:04.894Z,0.40
2023-02-06T18:43:31.689Z,0.50
2023-02-06T18:45:58.509Z,0.30
2023-02-06T18:48:25.247Z,-0.10
2023-02-06T18:50:52.012Z,0.00
2023-02-06T18:53:18.755Z,0.20
2023-02-06T18:55:45.599Z,0.20
2023-02-06T18:58:13.760Z,0.20
2023-02-06T19:00:40.748Z,0.30
2023-02-06T19:03:07.560Z,0.10
2023-02-06T19:05:35.253Z,-0.10
2023-02-06T19:08:02.000Z,-0.10
2023-02-06T19:10:29.072Z,0.10
2023-02-06T19:12:55.809Z,0.00
2023-02-06T19:15:23.976Z,-0.10
2023-02-06T19:17:51.012Z,-0.10
2023-02-06T19:20:18.216Z,0.10
2023-02-06T19:22:45.076Z,0.10
2023-02-06T19:25:14.318Z,0.00
2023-02-06T19:27:41.486Z,0.00
2023-02-06T19:30:09.306Z,0.10
2023-02-06T19:32:38.128Z,0.00
2023-02-06T19:35:05.637Z,0.10
2023-02-06T19:37:32.712Z,0.10
2023-02-06T19:39:59.461Z,-0.10
2023-02-06T19:42:26.232Z,-0.10
2023-02-06T19:44:53.941Z,-0.10
2023-02-06T19:47:21.195Z,-0.20
2023-02-06T19:49:51.386Z,-0.30
2023-02-06T19:52:18.141Z,-0.40
2023-02-06T19:54:44.971Z,-0.50
2023-02-06T19:57:11.704Z,-0.40
2023-02-06T19:59:38.463Z,-0.40
2023-02-06T20:02:05.212Z,-0.50
2023-02-06T20:04:34.481Z,-0.40
2023-02-06T20:07:02.801Z,-0.60
2023-02-06T20:09:29.796Z,-0.70
2023-02-06T20:11:57.291Z,-0.30
2023-02-06T20:14:25.518Z,-0.40
2023-02-06T20:16:52.776Z,-0.50
2023-02-06T20:19:22.225Z,-0.50
2023-02-06T20:21:51.426Z,-0.50
2023-02-06T20:24:21.100Z,-0.40
2023-02-06T20:26:50.772Z,-0.60
2023-02-06T20:29:21.316Z,-0.70
2023-02-06T20:31:49.108Z,-0.60
2023-02-06T20:34:16.262Z,-0.70
2023-02-06T20:36:43.612Z,-0.60
2023-02-06T20:39:11.730Z,-0.60
2023-02-06T20:41:40.694Z,-0.50
2023-02-06T20:44:09.676Z,-0.60
2023-02-06T20:46:36.749Z,-0.70
2023-02-06T20:49:07.238Z,-0.70
2023-02-06T20:51:33.947Z,-0.80
2023-02-06T20:54:00.820Z,-0.70
2023-02-06T20:56:28.261Z,-0.60
2023-02-06T20:58:56.620Z,-0.30
2023-02-06T21:01:25.892Z,-0.50
2023-02-06T21:03:55.154Z,-0.40
2023-02-06T21:06:22.764Z,-0.50
2023-02-06T21:08:50.349Z,-0.60
2023-02-06T21:11:17.724Z,-0.50
2023-02-06T21:13:44.696Z,-0.50
2023-02-06T21:16:13.714Z,-0.60
2023-02-06T21:18:40.426Z,-0.70
2023-02-06T21:21:09.336Z,-0.70
2023-02-06T21:23:36.880Z,-0.80
2023-02-06T21:26:04.749Z,-0.80
2023-02-06T21:28:32.473Z,-0.90
2023-02-06T21:31:00.481Z,-0.90
2023-02-06T21:33:29.704Z,-1.00
2023-02-06T21:35:56.935Z,-1.00
2023-02-06T21:38:24.875Z,-1.10
2023-02-06T21:40:51.686Z,-1.10
2023-02-06T21:43:18.461Z,-1.00
2023-02-06T21:45:47.292Z,-1.10
2023-02-06T21:48:14.235Z,-1.00
2023-02-06T21:50:42.557Z,-1.10
2023-02-06T21:53:09.556Z,-1.00
2023-02-06T21:55:41.962Z,-0.90
2023-02-06T21:58:09.242Z,-1.10
2023-02-06T22:00:36.044Z,-0.90
2023-02-06T22:03:03.117Z,-1.10
2023-02-06T22:05:29.992Z,-1.20
2023-02-06T22:07:58.268Z,-1.30
2023-02-06T22:10:25.407Z,-1.30
2023-02-06T22:12:52.164Z,-1.50
2023-02-06T22:15:19.207Z,-1.50
2023-02-06T22:17:45.992Z,-1.40
2023-02-06T22:20:15.430Z,-1.40
2023-02-06T22:22:43.082Z,-1.50
2023-02-06T22:25:11.215Z,-1.30
2023-02-06T22:27:38.434Z,-1.40
2023-02-06T22:30:07.195Z,-1.20
2023-02-06T22:32:36.092Z,-1.20
2023-02-06T22:35:03.059Z,-1.10
2023-02-06T22:37:30.968Z,-0.90
2023-02-06T22:39:57.764Z,-0.90
2023-02-06T22:42:26.240Z,-0.70
2023-02-06T22:44:53.357Z,-0.90
2023-02-06T22:47:24.425Z,-1.00
2023-02-06T22:49:52.674Z,-1.00
2023-02-06T22:52:19.469Z,-1.00
2023-02-06T22:54:46.191Z,-0.80
2023-02-06T22:57:13.181Z,-1.10
2023-02-06T22:59:41.358Z,-1.10
2023-02-06T23:02:08.230Z,-1.10
2023-02-06T23:04:35.001Z,-1.40
2023-02-06T23:07:02.356Z,-1.50
2023-02-06T23:09:32.859Z,-1.90
2023-02-06T23:12:00.246Z,-1.60
2023-02-06T23:14:28.150Z,-1.70
2023-02-06T23:16:59.035Z,-1.60
2023-02-06T23:19:26.208Z,-1.80
2023-02-06T23:21:53.140Z,-1.80
2023-02-06T23:24:20.452Z,-1.80
2023-02-06T23:26:49.047Z,-1.90
2023-02-06T23:29:17.352Z,-1.70
2023-02-06T23:31:44.957Z,-1.80
2023-02-06T23:34:14.296Z,-1.80
2023-02-06T23:36:41.587Z,-1.70
2023-02-06T23:39:08.697Z,-1.70
2023-02-06T23:41:35.624Z,-1.70
2023-02-06T23:44:05.689Z,-1.70
2023-02-06T23:46:34.695Z,-1.70
2023-02-06T23:49:01.561Z,-1.70
2023-02-06T23:51:29.790Z,-1.80
2023-02-06T23:53:56.646Z,-1.90
2023-02-06T23:56:25.169Z,-1.90
2023-02-06T23:58:55.569Z,-1.90
